Time;durP1;ratioP1;P1;durP2;ratioP2;P2;SDS_P1;SDS_P2;PMS_P1;PMS_P2;Temp;Humidity;BMP_temperature;BMP_pressure;BME280_temperature;BME280_humidity;BME280_pressure;Samples;Min_cycle;Max_cycle;Signal;HPM_P1;HPM_P2
2024/01/04 00:02:13;;;;;;;9.47;9.07;;;;;;;10.66;66.80;92114.38;5053433;28;20233;-72
2024/01/04 00:04:40;;;;;;;9.07;8.67;;;;;;;10.54;66.81;92108.09;5071883;28;20189;-72
2024/01/04 00:07:06;;;;;;;9.43;9.03;;;;;;;10.38;68.70;92138.16;5066001;28;20256;-72
2024/01/04 00:09:31;;;;;;;9.93;9.27;;;;;;;10.43;69.02;92133.63;5065442;28;20198;-71
2024/01/04 00:11:56;;;;;;;9.40;8.83;;;;;;;10.14;72.09;92122.66;5062861;28;20222;-72
2024/01/04 00:14:22;;;;;;;9.70;9.27;;;;;;;10.50;69.00;92118.38;5079151;28;20228;-73
2024/01/04 00:16:47;;;;;;;8.60;8.07;;;;;;;10.52;68.25;92111.00;5058261;28;20252;-72
2024/01/04 00:19:12;;;;;;;9.53;8.93;;;;;;;10.60;68.23;92110.34;5068639;28;20197;-73
2024/01/04 00:21:38;;;;;;;8.70;7.93;;;;;;;10.53;68.25;92107.34;5066706;28;20255;-72
2024/01/04 00:24:04;;;;;;;9.50;9.10;;;;;;;10.54;69.64;92119.31;5049337;28;20199;-73
2024/01/04 00:26:29;;;;;;;9.80;9.40;;;;;;;10.46;68.54;92106.19;5043103;28;20190;-73
2024/01/04 00:28:55;;;;;;;9.60;8.73;;;;;;;10.60;68.74;92112.19;5047969;28;20170;-73
2024/01/04 00:31:20;;;;;;;9.67;9.20;;;;;;;10.57;69.04;92105.69;5046198;28;20186;-73
2024/01/04 00:33:45;;;;;;;8.43;8.00;;;;;;;10.52;68.96;92105.78;5065922;28;20296;-73
2024/01/04 00:36:11;;;;;;;10.17;9.67;;;;;;;10.56;70.85;92098.16;5071190;28;20182;-73
2024/01/04 00:38:36;;;;;;;8.87;8.47;;;;;;;10.53;69.16;92086.47;5066105;28;20219;-73
2024/01/04 00:41:02;;;;;;;8.70;8.40;;;;;;;10.64;68.50;92093.03;5069473;28;20185;-73
2024/01/04 00:43:27;;;;;;;9.30;8.70;;;;;;;10.69;68.79;92108.59;5065358;28;20239;-73
2024/01/04 00:45:53;;;;;;;8.50;8.20;;;;;;;10.53;69.67;92094.31;5066018;28;20187;-73
2024/01/04 00:48:18;;;;;;;8.10;7.80;;;;;;;10.47;71.66;92123.38;5067595;28;20221;-73
2024/01/04 00:50:43;;;;;;;9.43;9.00;;;;;;;10.35;71.88;92121.25;5070114;28;20186;-71
2024/01/04 00:53:09;;;;;;;10.53;9.97;;;;;;;10.05;72.08;92094.91;5068858;28;20213;-73
2024/01/04 00:55:34;;;;;;;12.47;11.43;;;;;;;9.22;80.69;92123.53;5070993;28;20212;-73
2024/01/04 00:58:02;;;;;;;10.93;10.03;;;;;;;9.04;83.89;92130.28;5057803;28;20306;-72
2024/01/04 01:00:27;;;;;;;12.57;11.67;;;;;;;8.44;88.10;92133.63;5063602;28;20185;-73
2024/01/04 01:02:53;;;;;;;11.03;10.23;;;;;;;8.61;86.74;92104.53;5053707;28;20823;-73
2024/01/04 01:05:18;;;;;;;11.77;11.07;;;;;;;8.32;88.43;92122.03;5051124;28;20186;-72
2024/01/04 01:07:44;;;;;;;11.73;10.93;;;;;;;8.25;88.86;92117.16;5046598;28;20222;-73
2024/01/04 01:10:09;;;;;;;12.47;11.57;;;;;;;8.06;90.57;92117.06;5047381;28;20246;-72
2024/01/04 01:12:34;;;;;;;12.37;11.53;;;;;;;8.45;87.71;92113.59;5060076;28;20285;-73
2024/01/04 01:15:00;;;;;;;11.50;10.80;;;;;;;8.15;89.87;92110.22;5064614;28;20217;-73
2024/01/04 01:17:25;;;;;;;12.03;11.13;;;;;;;8.25;89.77;92100.81;5075909;28;20255;-72
2024/01/04 01:19:50;;;;;;;11.53;10.77;;;;;;;8.09;90.65;92095.72;5069563;28;20276;-73
2024/01/04 01:22:16;;;;;;;11.77;10.97;;;;;;;8.03;92.01;92102.03;5066472;28;20273;-72
2024/01/04 01:24:41;;;;;;;12.27;11.40;;;;;;;7.86;91.21;92116.50;5060902;28;20193;-73
2024/01/04 01:27:07;;;;;;;12.93;12.00;;;;;;;7.92;91.34;92095.38;5053700;28;20225;-71
2024/01/04 01:29:32;;;;;;;12.87;11.50;;;;;;;7.79;92.57;92109.03;5070250;28;20185;-72
2024/01/04 01:31:57;;;;;;;12.83;11.57;;;;;;;7.78;92.11;92112.66;5053084;28;20244;-73
2024/01/04 01:34:23;;;;;;;11.17;10.13;;;;;;;7.51;94.49;92125.34;5069546;28;20272;-73
2024/01/04 01:36:48;;;;;;;11.27;10.23;;;;;;;7.45;94.27;92105.66;5066569;28;20217;-73
2024/01/04 01:39:13;;;;;;;12.43;11.37;;;;;;;7.83;92.29;92119.63;5070126;28;20182;-72
2024/01/04 01:41:39;;;;;;;12.47;11.37;;;;;;;7.68;91.91;92093.78;5060722;28;20177;-72
2024/01/04 01:44:04;;;;;;;12.23;11.43;;;;;;;7.29;94.73;92124.19;5061129;28;20216;-73
2024/01/04 01:46:29;;;;;;;11.63;10.73;;;;;;;7.53;93.85;92105.06;5060828;28;20209;-73
2024/01/04 01:48:55;;;;;;;12.00;11.20;;;;;;;7.76;92.90;92111.38;5061652;28;20190;-72
2024/01/04 01:51:20;;;;;;;12.60;11.60;;;;;;;7.59;93.15;92122.19;5062369;28;20228;-73
2024/01/04 01:53:46;;;;;;;12.23;11.27;;;;;;;7.71;92.37;92114.81;5063576;28;20217;-72
2024/01/04 01:56:11;;;;;;;12.43;11.47;;;;;;;7.92;91.47;92131.75;5064300;28;20184;-73
2024/01/04 01:58:37;;;;;;;12.40;11.40;;;;;;;7.91;91.63;92130.22;5060232;28;20248;-73
2024/01/04 02:01:03;;;;;;;12.00;11.00;;;;;;;7.70;91.63;92105.47;5051793;28;20182;-73
2024/01/04 02:03:28;;;;;;;12.77;11.77;;;;;;;7.87;91.58;92111.03;5063331;28;20241;-73
2024/01/04 02:05:53;;;;;;;11.73;10.83;;;;;;;7.74;90.86;92082.28;5057560;28;20198;-73
2024/01/04 02:08:19;;;;;;;11.80;10.90;;;;;;;8.13;88.62;92122.72;5063293;28;20233;-73
2024/01/04 02:10:44;;;;;;;13.40;12.17;;;;;;;7.39;93.23;92111.91;5068620;28;20217;-73
2024/01/04 02:13:10;;;;;;;11.93;11.17;;;;;;;7.58;92.59;92104.28;5068800;28;20267;-73
2024/01/04 02:15:35;;;;;;;12.67;11.57;;;;;;;7.78;91.08;92119.69;5060664;28;20209;-73
2024/01/04 02:18:01;;;;;;;12.60;11.47;;;;;;;7.84;91.36;92111.56;5058558;28;20236;-72
2024/01/04 02:20:26;;;;;;;11.73;10.70;;;;;;;8.10;90.35;92118.09;5059340;28;20227;-73
2024/01/04 02:22:52;;;;;;;12.00;11.10;;;;;;;8.20;89.79;92120.56;5069088;28;20746;-73
2024/01/04 02:25:18;;;;;;;10.83;10.03;;;;;;;7.93;89.94;92107.34;5067724;28;20242;-73
2024/01/04 02:27:43;;;;;;;9.23;8.70;;;;;;;8.86;82.20;92112.03;5059165;28;20664;-73
2024/01/04 02:30:11;;;;;;;9.70;9.30;;;;;;;9.53;78.67;92115.03;5069367;28;20181;-73
2024/01/04 02:32:37;;;;;;;10.00;9.50;;;;;;;9.35;79.90;92112.44;5065926;28;20224;-72
2024/01/04 02:35:03;;;;;;;11.77;10.30;;;;;;;8.85;82.28;92100.09;5056975;28;20210;-73
2024/01/04 02:37:28;;;;;;;8.60;8.20;;;;;;;8.75;83.14;92082.00;5062599;28;20217;-73
2024/01/04 02:39:53;;;;;;;9.37;8.83;;;;;;;9.07;82.15;92095.13;5059984;28;20650;-73
2024/01/04 02:42:19;;;;;;;10.57;9.97;;;;;;;9.29;80.99;92096.09;5046697;28;20238;-73
2024/01/04 02:44:44;;;;;;;10.83;10.27;;;;;;;9.05;81.77;92076.41;5038754;28;20192;-73
2024/01/04 02:47:09;;;;;;;10.80;10.10;;;;;;;9.05;82.82;92089.41;5037538;28;20222;-73
2024/01/04 02:49:34;;;;;;;10.57;9.97;;;;;;;8.83;84.06;92069.16;5046221;28;20226;-73
2024/01/04 02:52:00;;;;;;;9.73;8.90;;;;;;;9.02;81.30;92066.53;5049169;28;20229;-72
2024/01/04 02:54:25;;;;;;;8.70;8.20;;;;;;;9.74;75.58;92064.13;5062986;28;20220;-73
2024/01/04 02:56:50;;;;;;;10.10;9.60;;;;;;;9.70;75.92;92052.72;5056134;28;20237;-73
2024/01/04 02:59:16;;;;;;;8.00;7.60;;;;;;;10.26;71.81;92052.53;5060473;28;20189;-73
2024/01/04 03:01:43;;;;;;;8.67;8.17;;;;;;;10.50;69.96;92040.06;5065735;28;20205;-72
2024/01/04 03:04:09;;;;;;;9.33;8.93;;;;;;;10.45;70.65;92032.34;5063048;28;20182;-73
2024/01/04 03:06:34;;;;;;;8.93;8.53;;;;;;;10.83;68.16;92033.63;5069357;28;20188;-73
2024/01/04 03:09:00;;;;;;;9.00;8.53;;;;;;;10.74;68.41;92017.13;5060678;28;20193;-72
2024/01/04 03:11:25;;;;;;;9.03;8.70;;;;;;;11.01;67.78;92032.72;5067696;28;20186;-73
2024/01/04 03:13:50;;;;;;;7.53;7.23;;;;;;;10.86;68.87;92029.69;5066546;28;20213;-73
2024/01/04 03:16:18;;;;;;;8.73;8.33;;;;;;;10.38;71.40;92015.53;5055534;28;20185;-72
2024/01/04 03:18:44;;;;;;;9.63;9.13;;;;;;;9.31;79.38;92038.50;5068347;28;20209;-73
2024/01/04 03:21:10;;;;;;;10.70;9.90;;;;;;;9.30;78.61;92039.56;5067876;28;20233;-73
2024/01/04 03:23:35;;;;;;;11.53;10.60;;;;;;;8.57;82.16;92039.31;5034229;28;20219;-73
2024/01/04 03:26:01;;;;;;;11.67;10.83;;;;;;;8.31;83.27;92034.69;5037248;28;20206;-72
2024/01/04 03:28:26;;;;;;;11.37;10.47;;;;;;;7.74;86.75;92062.28;5043353;28;20241;-73
2024/01/04 03:30:51;;;;;;;11.57;10.87;;;;;;;7.86;87.41;92049.69;5049585;28;20216;-73
2024/01/04 03:33:17;;;;;;;12.30;11.53;;;;;;;7.48;88.67;92062.78;5050714;28;20222;-74
2024/01/04 03:35:42;;;;;;;10.33;9.63;;;;;;;7.28;90.41;92061.13;5040894;28;20249;-73
2024/01/04 03:38:07;;;;;;;11.27;10.50;;;;;;;7.59;89.05;92052.06;5040962;28;20226;-72
2024/01/04 03:40:33;;;;;;;12.13;11.33;;;;;;;7.85;87.74;92045.56;5044668;28;20199;-73
2024/01/04 03:42:58;;;;;;;12.33;11.33;;;;;;;7.40;88.66;92050.38;5055763;28;21492;-72
2024/01/04 03:45:23;;;;;;;11.63;10.83;;;;;;;7.55;88.93;92035.44;5055557;28;20182;-73
2024/01/04 03:47:49;;;;;;;12.23;11.40;;;;;;;7.46;88.87;92050.06;5045199;28;20206;-73
2024/01/04 03:50:14;;;;;;;12.80;11.67;;;;;;;7.49;88.76;92036.53;5045126;28;20213;-72
2024/01/04 03:52:40;;;;;;;11.37;10.67;;;;;;;7.34;89.86;92026.31;5039836;28;20230;-72
2024/01/04 03:55:05;;;;;;;12.87;11.93;;;;;;;7.19;90.62;92039.38;5038491;28;20213;-73
2024/01/04 03:57:31;;;;;;;12.17;11.17;;;;;;;7.10;91.45;92043.59;5052875;28;20224;-73
2024/01/04 03:59:56;;;;;;;13.30;12.33;;;;;;;6.70;93.14;92038.69;5063699;28;20193;-72
2024/01/04 04:02:22;;;;;;;11.87;11.07;;;;;;;6.98;91.78;92048.38;5067665;28;20217;-73
2024/01/04 04:04:48;;;;;;;12.77;11.87;;;;;;;6.95;92.29;92037.75;5066203;28;20185;-73
2024/01/04 04:07:14;;;;;;;12.30;11.40;;;;;;;6.79;92.39;92034.47;5062638;28;20225;-73
2024/01/04 04:09:39;;;;;;;13.03;12.23;;;;;;;6.58;93.10;92026.03;5075903;28;20203;-73
2024/01/04 04:12:05;;;;;;;12.10;11.20;;;;;;;6.45;94.70;92013.69;5052807;28;20222;-73
2024/01/04 04:14:33;;;;;;;12.53;11.63;;;;;;;6.84;93.96;92016.28;5052004;28;20206;-72
2024/01/04 04:17:02;;;;;;;14.17;12.77;;;;;;;7.01;92.88;92006.31;5056368;28;20225;-71
2024/01/04 04:19:28;;;;;;;13.80;12.70;;;;;;;6.87;92.47;91992.41;5065790;28;20174;-73
2024/01/04 04:21:53;;;;;;;15.37;12.77;;;;;;;7.06;91.99;92021.84;5067179;28;20236;-72
2024/01/04 04:24:18;;;;;;;14.00;12.80;;;;;;;6.95;92.16;92025.56;5048367;28;20197;-72
2024/01/04 04:26:44;;;;;;;14.80;13.23;;;;;;;6.93;92.60;92035.44;5041356;28;20229;-72
2024/01/04 04:29:09;;;;;;;14.33;13.13;;;;;;;6.68;92.75;92022.63;5068244;28;20193;-73
2024/01/04 04:31:35;;;;;;;13.20;12.10;;;;;;;6.17;96.96;92026.50;5066461;28;20275;-73
2024/01/04 04:34:00;;;;;;;13.57;12.67;;;;;;;6.34;95.83;92032.13;5068316;28;20331;-73
2024/01/04 04:36:25;;;;;;;13.67;12.43;;;;;;;6.50;95.29;92028.44;5068598;28;20173;-73
2024/01/04 04:38:51;;;;;;;12.73;11.80;;;;;;;6.27;94.97;92011.69;5065952;28;20327;-73
2024/01/04 04:41:16;;;;;;;13.33;12.37;;;;;;;6.29;96.72;92029.56;5065011;28;20177;-73
2024/01/04 04:43:41;;;;;;;12.33;11.50;;;;;;;6.45;96.14;92037.03;5070459;28;20221;-77
2024/01/04 04:46:11;;;;;;;12.67;11.47;;;;;;;6.55;95.52;92020.63;5066138;28;20178;-75
2024/01/04 04:48:37;;;;;;;12.33;11.43;;;;;;;6.59;95.23;92000.91;5070981;28;20225;-79
2024/01/04 04:51:02;;;;;;;12.03;10.93;;;;;;;6.34;96.00;92011.41;5066652;28;20188;-76
2024/01/04 04:53:28;;;;;;;12.47;11.67;;;;;;;6.60;95.52;92033.56;5060143;28;20221;-75
2024/01/04 04:55:53;;;;;;;12.13;11.00;;;;;;;6.67;94.54;92000.31;5063584;28;20214;-75
2024/01/04 04:58:18;;;;;;;12.50;11.60;;;;;;;6.80;94.59;92037.84;5060070;28;20755;-76
2024/01/04 05:00:44;;;;;;;12.20;11.50;;;;;;;6.64;94.50;91990.50;5065658;28;20201;-77
2024/01/04 05:03:09;;;;;;;12.73;11.70;;;;;;;6.71;94.25;92021.31;5067399;28;20285;-78
2024/01/04 05:05:34;;;;;;;13.70;12.40;;;;;;;6.55;95.40;92018.03;5069565;28;20215;-78
2024/01/04 05:08:02;;;;;;;12.57;11.67;;;;;;;6.68;94.92;92027.81;5068684;28;20214;-78
2024/01/04 05:10:28;;;;;;;12.17;11.47;;;;;;;6.64;94.15;92028.63;5067611;28;20185;-78
2024/01/04 05:12:53;;;;;;;11.30;10.50;;;;;;;6.75;94.19;92043.06;5080683;28;20224;-78
2024/01/04 05:15:19;;;;;;;13.17;12.17;;;;;;;6.65;93.97;92043.91;5059076;28;20252;-74
2024/01/04 05:17:44;;;;;;;11.67;10.67;;;;;;;6.57;94.62;92042.66;5057915;28;20230;-77
2024/01/04 05:20:10;;;;;;;11.23;10.63;;;;;;;6.57;95.31;92060.81;5046682;28;20230;-74
2024/01/04 05:22:35;;;;;;;12.17;11.37;;;;;;;6.57;94.54;92057.44;5049455;28;20226;-77
2024/01/04 05:25:00;;;;;;;11.30;10.50;;;;;;;6.37;94.92;92027.19;5051922;28;20200;-76
2024/01/04 05:27:26;;;;;;;11.63;10.63;;;;;;;6.60;94.47;92062.06;5049265;28;20225;-76
2024/01/04 05:29:51;;;;;;;12.77;11.37;;;;;;;6.60;94.93;92071.69;5049825;28;20205;-77
2024/01/04 05:32:17;;;;;;;12.80;11.60;;;;;;;6.70;94.11;92082.00;5047457;28;20248;-79
2024/01/04 05:34:42;;;;;;;13.47;12.47;;;;;;;6.69;93.46;92057.13;5049028;28;20222;-74
2024/01/04 05:37:08;;;;;;;11.93;11.10;;;;;;;6.53;94.74;92072.75;5048774;28;20236;-74
2024/01/04 05:39:34;;;;;;;10.93;10.30;;;;;;;6.60;94.50;92062.06;5062559;28;20253;-74
2024/01/04 05:41:59;;;;;;;11.33;10.60;;;;;;;6.62;95.38;92048.84;5068392;28;20224;-74
2024/01/04 05:44:25;;;;;;;12.23;11.23;;;;;;;6.39;95.81;92019.16;5068263;28;20173;-74
2024/01/04 05:46:50;;;;;;;12.07;11.17;;;;;;;6.69;94.92;92033.78;5067267;28;20221;-73
2024/01/04 05:49:15;;;;;;;11.50;10.63;;;;;;;6.82;94.40;92026.16;5062333;28;20186;-73
2024/01/04 05:51:41;;;;;;;11.07;10.47;;;;;;;6.78;94.16;92025.16;5060961;28;20257;-74
2024/01/04 05:54:06;;;;;;;12.30;11.40;;;;;;;7.01;93.61;92023.69;5065448;28;20221;-74
2024/01/04 05:56:32;;;;;;;13.20;12.30;;;;;;;6.39;96.08;92034.72;5076451;28;20249;-74
2024/01/04 05:58:57;;;;;;;12.70;11.83;;;;;;;6.80;94.97;92020.50;5065092;28;20169;-74
2024/01/04 06:01:23;;;;;;;13.33;12.10;;;;;;;6.89;95.33;92018.88;5067494;28;20173;-74
2024/01/04 06:03:48;;;;;;;11.63;10.70;;;;;;;6.69;96.27;92023.41;5064899;28;20181;-74
2024/01/04 06:06:14;;;;;;;12.67;11.77;;;;;;;6.70;96.20;92032.72;5085655;28;20173;-74
2024/01/04 06:08:41;;;;;;;12.10;11.13;;;;;;;6.66;96.42;92045.47;5043877;28;20278;-74
2024/01/04 06:11:07;;;;;;;12.10;11.40;;;;;;;6.95;94.96;92051.50;5039419;28;20178;-74
2024/01/04 06:13:32;;;;;;;11.97;11.03;;;;;;;7.02;94.03;92053.81;5048615;28;20230;-72
2024/01/04 06:15:57;;;;;;;12.63;11.53;;;;;;;7.12;92.85;92054.50;5049762;28;20375;-74
2024/01/04 06:18:23;;;;;;;11.63;10.83;;;;;;;7.25;93.16;92077.25;5043685;28;20313;-74
2024/01/04 06:20:48;;;;;;;10.80;9.87;;;;;;;7.08;92.92;92027.53;5039262;28;20230;-73
2024/01/04 06:23:13;;;;;;;11.17;10.47;;;;;;;7.36;92.38;92077.94;5064780;28;20221;-73
2024/01/04 06:25:39;;;;;;;11.33;10.53;;;;;;;7.34;91.80;92067.84;5067740;28;20197;-74
2024/01/04 06:28:05;;;;;;;14.33;13.03;;;;;;;7.38;91.89;92083.63;5057626;28;20252;-73
2024/01/04 06:30:32;;;;;;;15.13;13.53;;;;;;;7.40;91.63;92081.53;5068547;28;20189;-73
2024/01/04 06:32:57;;;;;;;14.50;13.33;;;;;;;7.25;92.23;92076.47;5052524;28;20285;-73
2024/01/04 06:35:22;;;;;;;12.33;11.23;;;;;;;7.48;90.76;92062.78;5056281;28;20208;-73
2024/01/04 06:37:48;;;;;;;13.83;12.73;;;;;;;7.41;91.36;92067.53;5061324;28;20249;-73
2024/01/04 06:40:15;;;;;;;14.27;12.80;;;;;;;7.43;91.40;92066.19;5069206;28;20193;-71
2024/01/04 06:42:42;;;;;;;11.97;11.17;;;;;;;7.33;91.97;92081.84;5067837;28;20328;-73
2024/01/04 06:45:07;;;;;;;12.83;11.97;;;;;;;7.54;91.49;92078.06;5062426;28;20170;-72
2024/01/04 06:47:33;;;;;;;13.33;12.13;;;;;;;7.55;91.67;92058.81;5052792;28;20222;-73
2024/01/04 06:49:58;;;;;;;13.47;12.57;;;;;;;7.64;91.59;92049.38;5063199;28;20178;-73
2024/01/04 06:52:23;;;;;;;12.33;11.50;;;;;;;8.02;89.62;92063.31;5059750;28;20221;-73
2024/01/04 06:54:49;;;;;;;12.33;11.43;;;;;;;8.02;89.87;92050.31;5069604;28;20213;-73
2024/01/04 06:57:14;;;;;;;11.50;10.70;;;;;;;8.04;89.56;92038.59;5061690;28;20232;-73
2024/01/04 06:59:39;;;;;;;14.10;13.07;;;;;;;7.97;90.02;92050.38;5047216;28;20190;-73
2024/01/04 07:02:05;;;;;;;13.07;12.07;;;;;;;8.19;89.14;92048.84;5046012;28;20222;-73
2024/01/04 07:04:31;;;;;;;13.37;12.27;;;;;;;8.49;88.10;92063.34;5048737;28;20225;-73
2024/01/04 07:06:56;;;;;;;12.97;11.80;;;;;;;8.63;87.65;92074.63;5049934;28;20252;-73
2024/01/04 07:09:22;;;;;;;12.00;11.20;;;;;;;8.34;88.07;92063.53;5047074;28;20182;-73
2024/01/04 07:11:47;;;;;;;12.13;11.43;;;;;;;8.62;87.67;92082.69;5052750;28;20231;-73
2024/01/04 07:14:12;;;;;;;13.97;12.50;;;;;;;8.80;87.11;92094.94;5041767;28;20261;-73
2024/01/04 07:16:45;;;;;;;12.37;11.57;;;;;;;8.88;86.47;92076.88;5048646;28;20243;-73
2024/01/04 07:19:11;;;;;;;12.47;11.37;;;;;;;8.97;86.12;92088.22;5065734;28;20182;-73
2024/01/04 07:21:36;;;;;;;12.80;11.87;;;;;;;9.11;85.82;92077.88;5062766;28;20244;-72
2024/01/04 07:24:02;;;;;;;13.63;12.43;;;;;;;9.11;85.54;92086.47;5060771;28;20194;-73
2024/01/04 07:26:28;;;;;;;12.87;11.80;;;;;;;9.22;85.50;92082.66;5073109;28;20185;-73
2024/01/04 07:28:53;;;;;;;13.77;12.73;;;;;;;9.21;85.08;92082.94;5054538;28;20189;-73
2024/01/04 07:31:18;;;;;;;14.57;13.20;;;;;;;9.32;84.95;92086.97;5067507;28;20196;-73
2024/01/04 07:33:44;;;;;;;13.60;12.37;;;;;;;9.37;84.94;92064.19;5042366;28;20608;-73
2024/01/04 07:36:09;;;;;;;13.63;12.33;;;;;;;9.55;84.54;92066.00;5050364;28;20257;-73
2024/01/04 07:38:34;;;;;;;13.23;12.20;;;;;;;9.68;84.22;92047.00;5050064;28;20210;-73
2024/01/04 07:41:00;;;;;;;13.67;12.50;;;;;;;9.70;83.79;92052.72;5044472;28;20186;-73
2024/01/04 07:43:27;;;;;;;13.77;12.57;;;;;;;9.86;83.34;92048.03;5052235;28;20241;-73
2024/01/04 07:45:52;;;;;;;14.77;13.33;;;;;;;9.93;82.64;92037.97;5052020;28;20190;-73
2024/01/04 07:48:18;;;;;;;14.57;12.57;;;;;;;10.09;80.57;92028.06;5038531;28;20229;-72
2024/01/04 07:50:43;;;;;;;13.90;12.60;;;;;;;10.02;80.47;92033.66;5049706;28;20189;-73
2024/01/04 07:53:08;;;;;;;13.00;11.93;;;;;;;9.62;83.28;92034.34;5067013;28;20213;-73
2024/01/04 07:55:34;;;;;;;12.90;11.73;;;;;;;9.96;81.06;92016.53;5066426;28;20218;-73
2024/01/04 07:57:59;;;;;;;13.93;12.60;;;;;;;9.24;84.05;92023.25;5055397;28;20218;-73
2024/01/04 08:00:24;;;;;;;13.00;11.90;;;;;;;9.58;82.29;92023.75;5045249;28;20177;-73
2024/01/04 08:02:50;;;;;;;12.40;11.50;;;;;;;9.61;82.96;92023.19;5052043;28;20226;-73
2024/01/04 08:05:15;;;;;;;12.97;11.93;;;;;;;9.63;82.20;91994.97;5052357;28;20181;-73
2024/01/04 08:07:43;;;;;;;12.37;11.33;;;;;;;9.72;82.08;91995.88;5050840;28;20218;-74
2024/01/04 08:10:09;;;;;;;13.13;12.03;;;;;;;10.00;81.06;91985.47;5047399;28;20190;-73
2024/01/04 08:12:34;;;;;;;15.03;12.30;;;;;;;9.75;82.27;91981.50;5048727;28;20232;-73
2024/01/04 08:15:00;;;;;;;13.57;11.67;;;;;;;9.92;82.02;91991.34;5051034;28;20218;-73
2024/01/04 08:17:25;;;;;;;13.70;12.33;;;;;;;10.07;81.19;91997.06;5059147;28;20225;-73
2024/01/04 08:19:50;;;;;;;11.33;10.33;;;;;;;10.29;78.82;91984.13;5058604;28;20197;-72
2024/01/04 08:22:16;;;;;;;11.57;10.80;;;;;;;9.88;81.45;91991.16;5070896;28;20209;-73
2024/01/04 08:24:42;;;;;;;10.97;10.27;;;;;;;10.07;79.96;91993.69;5068004;28;20193;-73
2024/01/04 08:27:07;;;;;;;11.50;10.47;;;;;;;9.82;82.69;91981.91;5058684;28;20236;-73
2024/01/04 08:29:32;;;;;;;11.47;10.67;;;;;;;9.08;84.72;92008.13;5066645;28;20189;-73
2024/01/04 08:31:58;;;;;;;10.50;9.80;;;;;;;9.29;83.40;91989.31;5063093;28;20217;-73
2024/01/04 08:34:23;;;;;;;10.67;9.97;;;;;;;9.98;80.81;91996.19;5058399;28;20201;-73
2024/01/04 08:36:49;;;;;;;10.90;10.20;;;;;;;10.04;80.15;91989.81;5064523;28;20233;-73
2024/01/04 08:39:14;;;;;;;11.93;10.87;;;;;;;9.86;81.55;91997.72;5071205;28;20225;-73
2024/01/04 08:41:39;;;;;;;11.83;11.03;;;;;;;9.98;80.05;92004.00;5061332;28;20185;-73
2024/01/04 08:44:05;;;;;;;10.13;9.43;;;;;;;10.03;78.96;91998.69;5070775;28;20203;-72
2024/01/04 08:46:30;;;;;;;10.83;10.13;;;;;;;10.30;79.15;92006.56;5070799;28;20177;-73
2024/01/04 08:48:55;;;;;;;11.27;10.43;;;;;;;10.33;78.44;91992.16;5061605;28;20186;-72
2024/01/04 08:51:21;;;;;;;11.20;10.37;;;;;;;10.07;80.27;92017.94;5066804;28;20189;-76
2024/01/04 08:53:49;;;;;;;11.77;10.83;;;;;;;10.38;77.70;91990.19;5066720;28;20210;-75
2024/01/04 08:56:14;;;;;;;12.57;11.77;;;;;;;10.34;78.26;91989.25;5060285;28;20182;-76
2024/01/04 08:58:40;;;;;;;11.87;11.07;;;;;;;10.43;77.39;91995.31;5063694;28;20249;-75
2024/01/04 09:01:05;;;;;;;10.63;9.63;;;;;;;10.50;76.64;91987.88;5060914;28;20201;-75
2024/01/04 09:03:31;;;;;;;11.27;10.53;;;;;;;10.40;76.46;91935.91;5068291;28;20236;-77
2024/01/04 09:05:56;;;;;;;9.83;9.23;;;;;;;10.81;76.69;91988.78;5068665;28;20212;-79
2024/01/04 09:08:22;;;;;;;11.47;10.57;;;;;;;10.91;75.98;92001.59;5064850;28;20222;-78
2024/01/04 09:10:47;;;;;;;12.27;11.40;;;;;;;10.62;74.81;91984.75;5062121;28;20266;-78
2024/01/04 09:13:13;;;;;;;12.13;11.40;;;;;;;10.68;75.55;91988.78;5060759;28;20225;-76
2024/01/04 09:15:38;;;;;;;11.97;10.93;;;;;;;10.36;76.52;91963.66;5065053;28;20213;-76
2024/01/04 09:18:04;;;;;;;12.27;11.07;;;;;;;10.24;77.32;91968.56;5052575;28;20219;-78
2024/01/04 09:20:29;;;;;;;10.30;9.67;;;;;;;10.35;77.63;91969.91;5059271;28;20233;-77
2024/01/04 09:22:54;;;;;;;11.17;10.50;;;;;;;10.15;77.51;91962.50;5048733;28;20226;-78
2024/01/04 09:25:20;;;;;;;11.53;10.53;;;;;;;10.37;76.69;91946.13;5035288;28;20175;-77
2024/01/04 09:27:45;;;;;;;11.03;10.43;;;;;;;10.31;77.45;91955.91;5036295;28;20246;-76
2024/01/04 09:30:11;;;;;;;12.33;11.13;;;;;;;10.26;77.58;91955.25;5047490;28;20329;-75
2024/01/04 09:32:36;;;;;;;11.43;10.60;;;;;;;10.08;79.16;91964.75;5034411;28;20523;-74
2024/01/04 09:35:02;;;;;;;11.90;10.70;;;;;;;10.19;78.29;91950.44;5043797;28;20274;-74
2024/01/04 09:37:27;;;;;;;13.60;12.30;;;;;;;10.23;78.03;91945.38;5050062;28;20225;-74
2024/01/04 09:39:52;;;;;;;24.47;13.83;;;;;;;10.39;77.01;91965.66;5057673;28;20189;-73
2024/01/04 09:42:21;;;;;;;17.83;12.90;;;;;;;10.34;77.67;91944.91;5070098;28;20239;-74
2024/01/04 09:44:49;;;;;;;13.90;12.40;;;;;;;10.24;79.02;91963.34;5065139;28;20187;-74
2024/01/04 09:47:17;;;;;;;13.10;11.90;;;;;;;10.30;77.54;91933.53;5050741;28;20226;-75
2024/01/04 09:49:43;;;;;;;12.77;11.77;;;;;;;10.18;78.78;91932.47;5065599;28;20217;-74
2024/01/04 09:52:12;;;;;;;10.83;10.07;;;;;;;10.12;79.58;91941.44;5051444;28;20257;-75
2024/01/04 09:54:39;;;;;;;10.07;9.47;;;;;;;10.43;77.49;91931.94;5058958;28;20237;-74
2024/01/04 09:57:08;;;;;;;10.57;9.87;;;;;;;10.52;77.11;91927.56;5062127;28;20225;-75
2024/01/04 09:59:34;;;;;;;11.63;10.83;;;;;;;10.47;76.63;91932.91;5067809;28;20847;-74
2024/01/04 10:02:02;;;;;;;10.83;10.13;;;;;;;10.54;76.84;91928.03;5056825;28;20233;-74
2024/01/04 10:04:28;;;;;;;11.37;10.67;;;;;;;10.58;76.75;91910.72;5064049;28;20186;-74
2024/01/04 10:06:57;;;;;;;11.17;10.50;;;;;;;10.40;76.79;91911.63;5069221;28;20263;-75
2024/01/04 10:09:49;;;;;;;10.53;9.60;;;;;;;10.76;75.77;91915.00;5062313;28;20182;-75
2024/01/04 10:12:15;;;;;;;11.90;10.83;;;;;;;10.57;76.63;91898.72;5067376;28;20233;-75
2024/01/04 10:14:41;;;;;;;11.40;10.60;;;;;;;10.48;77.19;91898.69;5073446;28;20209;-75
2024/01/04 10:17:12;;;;;;;10.50;9.77;;;;;;;10.70;75.30;91883.03;5064081;28;20225;-74
2024/01/04 10:19:38;;;;;;;11.00;10.20;;;;;;;10.17;78.09;91874.31;5066746;28;20219;-74
2024/01/04 10:22:05;;;;;;;11.00;10.10;;;;;;;10.69;76.95;91860.59;5060601;28;20233;-74
2024/01/04 10:24:38;;;;;;;11.23;10.63;;;;;;;10.93;76.21;91863.69;5043944;28;20222;-74
2024/01/04 10:27:05;;;;;;;11.10;10.33;;;;;;;10.90;73.84;91861.66;5046514;28;21055;-74
2024/01/04 10:29:35;;;;;;;12.07;10.87;;;;;;;10.68;73.10;91806.88;5046599;28;20258;-74
2024/01/04 10:32:10;;;;;;;10.70;9.80;;;;;;;10.81;74.71;91841.78;5047520;28;20240;-74
2024/01/04 10:34:37;;;;;;;10.17;9.37;;;;;;;11.12;73.12;91843.38;5039564;28;20223;-74
2024/01/04 10:37:13;;;;;;;10.40;9.83;;;;;;;11.33;72.63;91826.09;5042791;28;20945;-74
2024/01/04 10:39:40;;;;;;;9.07;8.67;;;;;;;11.25;69.33;91818.97;5067871;28;20184;-75
2024/01/04 10:42:07;;;;;;;10.13;9.63;;;;;;;11.79;68.53;91827.50;5065806;28;20244;-74
2024/01/04 10:44:33;;;;;;;8.70;8.23;;;;;;;11.71;65.86;91812.53;5060668;28;20265;-76
2024/01/04 10:47:01;;;;;;;7.67;7.30;;;;;;;12.07;65.76;91823.53;5059287;28;20295;-75
2024/01/04 10:49:27;;;;;;;9.27;8.77;;;;;;;12.24;63.53;91795.56;5064820;28;20183;-76
2024/01/04 10:52:01;;;;;;;9.93;9.47;;;;;;;12.53;62.48;91813.22;5057175;28;20236;-75
2024/01/04 10:54:34;;;;;;;9.83;9.17;;;;;;;12.60;62.21;91827.44;5066923;28;20226;-76
2024/01/04 10:57:01;;;;;;;9.27;8.87;;;;;;;12.58;62.80;91813.88;5058882;28;20236;-75
2024/01/04 10:59:30;;;;;;;8.83;8.23;;;;;;;12.58;61.40;91806.00;5064030;28;20194;-74
2024/01/04 11:01:58;;;;;;;9.37;8.73;;;;;;;12.70;63.27;91805.41;5061067;28;20247;-75
2024/01/04 11:04:24;;;;;;;8.73;8.43;;;;;;;12.59;61.86;91791.09;5057667;28;20176;-76
2024/01/04 11:06:50;;;;;;;9.87;8.63;;;;;;;12.42;61.76;91768.28;5067459;28;20241;-75
2024/01/04 11:09:19;;;;;;;8.33;8.03;;;;;;;12.96;60.89;91790.38;5062685;28;20174;-76
2024/01/04 11:11:44;;;;;;;8.47;7.97;;;;;;;13.14;59.00;91791.91;5077728;28;20233;-76
2024/01/04 11:14:09;;;;;;;9.23;8.63;;;;;;;13.30;59.51;91789.53;5068333;28;20490;-74
2024/01/04 11:16:44;;;;;;;8.50;8.00;;;;;;;13.07;58.51;91778.53;5065370;28;20219;-73
2024/01/04 11:19:27;;;;;;;9.60;9.00;;;;;;;13.33;59.51;91779.19;5047868;28;20196;-74
2024/01/04 11:22:06;;;;;;;8.63;8.13;;;;;;;13.07;60.22;91775.91;5040703;28;20264;-74